Nast, Colorado
Current Conditions -  °F | °C
As of 11:02 AM on Thursday 18 Dec 2014 (Local Time) from KLXV Reporting Station
Broken Clouds Broken Clouds  
Wind Chill: 25°   Ceiling: 2800
Heat Index: 25°   Visibility: 10mi
Dew Point: 12°   Wind: 0mph
Humidity: 58%   Direction: NA
Pressure: 30.05"   Gusts: NA
Location:  39.3236°N, 106.55°W
Report Text: KLXV 181802Z AUTO 00000KT 10SM BKN028 BKN033 M04/M11 A3005 RMK AO2 T10391111
Loading
Personal Weather Stations






























Interactive Weather Map New forecast layout! Learn more

10-Day Weather Forecast

Advertisements
Track Severe Weather on mobile